sensor_id;sensor_type;location;lat;lon;timestamp;temperature;humidity
26479;DHT22;14163;-26.142;27.992;2023-12-29T00:00:19;21.90;99.90
26479;DHT22;14163;-26.142;27.992;2023-12-29T00:02:48;21.80;99.90
26479;DHT22;14163;-26.142;27.992;2023-12-29T00:05:18;21.80;99.90
26479;DHT22;14163;-26.142;27.992;2023-12-29T00:07:48;21.90;99.90
26479;DHT22;14163;-26.142;27.992;2023-12-29T00:10:17;21.90;99.90
26479;DHT22;14163;-26.142;27.992;2023-12-29T00:12:47;21.90;99.90
26479;DHT22;14163;-26.142;27.992;2023-12-29T00:15:21;21.90;99.90
26479;DHT22;14163;-26.142;27.992;2023-12-29T00:17:50;21.90;99.90
26479;DHT22;14163;-26.142;27.992;2023-12-29T00:20:19;21.90;99.90
26479;DHT22;14163;-26.142;27.992;2023-12-29T00:22:49;21.90;99.90
26479;DHT22;14163;-26.142;27.992;2023-12-29T00:25:18;21.90;99.90
26479;DHT22;14163;-26.142;27.992;2023-12-29T00:27:48;22.00;99.90
26479;DHT22;14163;-26.142;27.992;2023-12-29T00:30:21;22.00;99.90
26479;DHT22;14163;-26.142;27.992;2023-12-29T00:32:50;22.00;99.90
26479;DHT22;14163;-26.142;27.992;2023-12-29T00:35:19;22.00;99.90
26479;DHT22;14163;-26.142;27.992;2023-12-29T00:37:49;21.90;99.90
26479;DHT22;14163;-26.142;27.992;2023-12-29T00:40:19;21.90;99.90
26479;DHT22;14163;-26.142;27.992;2023-12-29T00:42:48;21.80;99.90
26479;DHT22;14163;-26.142;27.992;2023-12-29T00:45:20;21.90;99.90
26479;DHT22;14163;-26.142;27.992;2023-12-29T00:47:50;21.90;99.90
26479;DHT22;14163;-26.142;27.992;2023-12-29T00:50:19;21.90;99.90
26479;DHT22;14163;-26.142;27.992;2023-12-29T00:52:48;21.70;99.90
26479;DHT22;14163;-26.142;27.992;2023-12-29T00:55:17;21.90;99.90
26479;DHT22;14163;-26.142;27.992;2023-12-29T00:57:47;21.80;99.90
26479;DHT22;14163;-26.142;27.992;2023-12-29T01:00:19;21.80;99.90
26479;DHT22;14163;-26.142;27.992;2023-12-29T01:02:49;21.90;99.90
26479;DHT22;14163;-26.142;27.992;2023-12-29T01:05:19;21.90;99.90
26479;DHT22;14163;-26.142;27.992;2023-12-29T01:07:49;21.90;99.90
26479;DHT22;14163;-26.142;27.992;2023-12-29T01:10:18;21.90;99.90
26479;DHT22;14163;-26.142;27.992;2023-12-29T01:12:48;21.80;99.90
26479;DHT22;14163;-26.142;27.992;2023-12-29T01:15:20;21.80;99.90
26479;DHT22;14163;-26.142;27.992;2023-12-29T01:17:49;21.70;99.90
26479;DHT22;14163;-26.142;27.992;2023-12-29T01:20:18;21.60;99.90
26479;DHT22;14163;-26.142;27.992;2023-12-29T01:22:48;21.60;99.90
26479;DHT22;14163;-26.142;27.992;2023-12-29T01:25:17;21.70;99.90
26479;DHT22;14163;-26.142;27.992;2023-12-29T01:27:47;21.60;99.90
26479;DHT22;14163;-26.142;27.992;2023-12-29T01:30:19;21.60;99.90
26479;DHT22;14163;-26.142;27.992;2023-12-29T01:32:49;21.60;99.90
26479;DHT22;14163;-26.142;27.992;2023-12-29T01:35:18;21.60;99.90
26479;DHT22;14163;-26.142;27.992;2023-12-29T01:37:47;21.60;99.90
26479;DHT22;14163;-26.142;27.992;2023-12-29T01:40:17;21.60;99.90
26479;DHT22;14163;-26.142;27.992;2023-12-29T01:42:46;21.50;99.90
26479;DHT22;14163;-26.142;27.992;2023-12-29T01:45:23;21.50;99.90
26479;DHT22;14163;-26.142;27.992;2023-12-29T01:47:54;21.50;99.90
26479;DHT22;14163;-26.142;27.992;2023-12-29T01:50:23;21.30;99.90
26479;DHT22;14163;-26.142;27.992;2023-12-29T01:52:53;21.30;99.90
26479;DHT22;14163;-26.142;27.992;2023-12-29T01:55:25;21.30;99.90
26479;DHT22;14163;-26.142;27.992;2023-12-29T01:57:56;21.30;99.90
26479;DHT22;14163;-26.142;27.992;2023-12-29T02:00:27;21.30;99.90
26479;DHT22;14163;-26.142;27.992;2023-12-29T02:02:58;21.10;99.90
26479;DHT22;14163;-26.142;27.992;2023-12-29T02:05:30;20.90;99.90
26479;DHT22;14163;-26.142;27.992;2023-12-29T02:07:59;20.90;99.90
26479;DHT22;14163;-26.142;27.992;2023-12-29T02:10:29;21.00;99.90
26479;DHT22;14163;-26.142;27.992;2023-12-29T02:12:59;21.00;99.90
26479;DHT22;14163;-26.142;27.992;2023-12-29T02:15:30;21.00;99.90
26479;DHT22;14163;-26.142;27.992;2023-12-29T02:18:02;21.20;99.90
26479;DHT22;14163;-26.142;27.992;2023-12-29T02:20:31;21.30;99.90
26479;DHT22;14163;-26.142;27.992;2023-12-29T02:23:00;21.30;99.90
26479;DHT22;14163;-26.142;27.992;2023-12-29T02:25:31;21.30;99.90
26479;DHT22;14163;-26.142;27.992;2023-12-29T02:28:04;21.20;99.90
26479;DHT22;14163;-26.142;27.992;2023-12-29T02:30:43;21.20;99.90
26479;DHT22;14163;-26.142;27.992;2023-12-29T02:33:16;21.10;99.90
26479;DHT22;14163;-26.142;27.992;2023-12-29T02:35:48;21.00;99.90
26479;DHT22;14163;-26.142;27.992;2023-12-29T02:38:20;21.00;99.90
26479;DHT22;14163;-26.142;27.992;2023-12-29T02:40:51;21.00;99.90
26479;DHT22;14163;-26.142;27.992;2023-12-29T02:43:20;21.10;99.90
26479;DHT22;14163;-26.142;27.992;2023-12-29T02:45:49;21.10;99.90
26479;DHT22;14163;-26.142;27.992;2023-12-29T02:48:18;21.10;99.90
26479;DHT22;14163;-26.142;27.992;2023-12-29T02:50:48;21.20;99.90
26479;DHT22;14163;-26.142;27.992;2023-12-29T02:53:17;21.10;99.90
26479;DHT22;14163;-26.142;27.992;2023-12-29T02:55:46;21.10;99.90
26479;DHT22;14163;-26.142;27.992;2023-12-29T02:58:17;21.10;99.90
26479;DHT22;14163;-26.142;27.992;2023-12-29T03:00:46;21.10;99.90
26479;DHT22;14163;-26.142;27.992;2023-12-29T03:03:15;21.10;99.90
26479;DHT22;14163;-26.142;27.992;2023-12-29T03:05:44;21.10;99.90
26479;DHT22;14163;-26.142;27.992;2023-12-29T03:08:13;21.10;99.90
26479;DHT22;14163;-26.142;27.992;2023-12-29T03:10:43;21.10;99.90
26479;DHT22;14163;-26.142;27.992;2023-12-29T03:13:15;21.20;99.90
26479;DHT22;14163;-26.142;27.992;2023-12-29T03:15:44;21.20;99.90
26479;DHT22;14163;-26.142;27.992;2023-12-29T03:18:13;21.10;99.90
26479;DHT22;14163;-26.142;27.992;2023-12-29T03:20:42;21.10;99.90
26479;DHT22;14163;-26.142;27.992;2023-12-29T03:23:11;21.20;99.90
26479;DHT22;14163;-26.142;27.992;2023-12-29T03:25:40;21.30;99.90
26479;DHT22;14163;-26.142;27.992;2023-12-29T03:28:09;21.30;99.90
26479;DHT22;14163;-26.142;27.992;2023-12-29T03:30:40;21.30;99.90
26479;DHT22;14163;-26.142;27.992;2023-12-29T03:33:09;21.30;99.90
26479;DHT22;14163;-26.142;27.992;2023-12-29T03:35:38;21.20;99.90
26479;DHT22;14163;-26.142;27.992;2023-12-29T03:38:07;21.20;99.90
26479;DHT22;14163;-26.142;27.992;2023-12-29T03:40:37;21.00;99.90
26479;DHT22;14163;-26.142;27.992;2023-12-29T03:43:06;20.90;99.90
26479;DHT22;14163;-26.142;27.992;2023-12-29T03:45:35;20.90;99.90
26479;DHT22;14163;-26.142;27.992;2023-12-29T03:48:06;20.80;99.90
26479;DHT22;14163;-26.142;27.992;2023-12-29T03:50:36;20.80;99.90
26479;DHT22;14163;-26.142;27.992;2023-12-29T03:53:05;20.90;99.90
26479;DHT22;14163;-26.142;27.992;2023-12-29T03:55:34;20.90;99.90
26479;DHT22;14163;-26.142;27.992;2023-12-29T03:58:04;21.00;99.90
26479;DHT22;14163;-26.142;27.992;2023-12-29T04:00:33;21.00;99.90
26479;DHT22;14163;-26.142;27.992;2023-12-29T04:03:04;21.00;99.90
26479;DHT22;14163;-26.142;27.992;2023-12-29T04:05:33;21.10;99.90
26479;DHT22;14163;-26.142;27.992;2023-12-29T04:08:02;21.10;99.90
26479;DHT22;14163;-26.142;27.992;2023-12-29T04:10:31;21.10;99.90
26479;DHT22;14163;-26.142;27.992;2023-12-29T04:13:00;21.00;99.90
26479;DHT22;14163;-26.142;27.992;2023-12-29T04:15:29;21.00;99.90
26479;DHT22;14163;-26.142;27.992;2023-12-29T04:17:59;21.00;99.90
26479;DHT22;14163;-26.142;27.992;2023-12-29T04:20:29;21.00;99.90
26479;DHT22;14163;-26.142;27.992;2023-12-29T04:22:58;21.00;99.90
26479;DHT22;14163;-26.142;27.992;2023-12-29T04:25:27;21.00;99.90
26479;DHT22;14163;-26.142;27.992;2023-12-29T04:27:57;21.00;99.90
26479;DHT22;14163;-26.142;27.992;2023-12-29T04:30:26;20.90;99.90
26479;DHT22;14163;-26.142;27.992;2023-12-29T04:32:55;20.90;99.90
26479;DHT22;14163;-26.142;27.992;2023-12-29T04:35:24;20.80;99.90
26479;DHT22;14163;-26.142;27.992;2023-12-29T04:37:55;20.90;99.90
26479;DHT22;14163;-26.142;27.992;2023-12-29T04:40:24;20.90;99.90
26479;DHT22;14163;-26.142;27.992;2023-12-29T04:42:53;20.90;99.90
26479;DHT22;14163;-26.142;27.992;2023-12-29T04:45:22;21.00;99.90
26479;DHT22;14163;-26.142;27.992;2023-12-29T04:47:51;21.00;99.90
26479;DHT22;14163;-26.142;27.992;2023-12-29T04:50:20;20.90;99.90
26479;DHT22;14163;-26.142;27.992;2023-12-29T04:52:49;20.70;99.90
26479;DHT22;14163;-26.142;27.992;2023-12-29T04:55:20;20.60;99.90
26479;DHT22;14163;-26.142;27.992;2023-12-29T04:57:49;20.40;99.90
26479;DHT22;14163;-26.142;27.992;2023-12-29T05:00:19;20.40;99.90
26479;DHT22;14163;-26.142;27.992;2023-12-29T05:02:48;20.40;99.90
26479;DHT22;14163;-26.142;27.992;2023-12-29T05:05:17;20.60;99.90
26479;DHT22;14163;-26.142;27.992;2023-12-29T05:07:46;20.70;99.90
26479;DHT22;14163;-26.142;27.992;2023-12-29T05:10:15;20.50;99.90
26479;DHT22;14163;-26.142;27.992;2023-12-29T05:12:46;20.60;99.90
26479;DHT22;14163;-26.142;27.992;2023-12-29T05:15:15;20.60;99.90
26479;DHT22;14163;-26.142;27.992;2023-12-29T05:17:44;20.70;99.90
26479;DHT22;14163;-26.142;27.992;2023-12-29T05:20:13;20.80;99.90
26479;DHT22;14163;-26.142;27.992;2023-12-29T05:22:42;20.90;99.90
26479;DHT22;14163;-26.142;27.992;2023-12-29T05:25:12;20.90;99.90
26479;DHT22;14163;-26.142;27.992;2023-12-29T05:27:41;20.90;99.90
26479;DHT22;14163;-26.142;27.992;2023-12-29T05:30:13;20.80;99.90
26479;DHT22;14163;-26.142;27.992;2023-12-29T05:32:42;20.90;99.90
26479;DHT22;14163;-26.142;27.992;2023-12-29T05:35:12;21.10;99.90
26479;DHT22;14163;-26.142;27.992;2023-12-29T05:37:41;21.10;99.90
26479;DHT22;14163;-26.142;27.992;2023-12-29T05:40:10;21.20;99.90
26479;DHT22;14163;-26.142;27.992;2023-12-29T05:42:40;21.10;99.90
26479;DHT22;14163;-26.142;27.992;2023-12-29T05:45:11;20.80;99.90
26479;DHT22;14163;-26.142;27.992;2023-12-29T05:47:40;20.70;99.90
26479;DHT22;14163;-26.142;27.992;2023-12-29T05:50:10;20.70;99.90
26479;DHT22;14163;-26.142;27.992;2023-12-29T05:52:39;20.90;99.90
26479;DHT22;14163;-26.142;27.992;2023-12-29T05:55:08;21.10;99.90
26479;DHT22;14163;-26.142;27.992;2023-12-29T05:57:37;21.30;99.90
26479;DHT22;14163;-26.142;27.992;2023-12-29T06:00:08;21.20;99.90
26479;DHT22;14163;-26.142;27.992;2023-12-29T06:02:43;21.30;99.90
26479;DHT22;14163;-26.142;27.992;2023-12-29T06:05:12;21.30;99.90
26479;DHT22;14163;-26.142;27.992;2023-12-29T06:07:41;21.20;99.90
26479;DHT22;14163;-26.142;27.992;2023-12-29T06:10:11;21.20;99.90
26479;DHT22;14163;-26.142;27.992;2023-12-29T06:12:40;21.30;99.90
26479;DHT22;14163;-26.142;27.992;2023-12-29T06:15:12;21.60;99.90
26479;DHT22;14163;-26.142;27.992;2023-12-29T06:17:43;21.70;99.90
26479;DHT22;14163;-26.142;27.992;2023-12-29T06:20:12;21.60;99.90
26479;DHT22;14163;-26.142;27.992;2023-12-29T06:22:41;21.60;99.90
26479;DHT22;14163;-26.142;27.992;2023-12-29T06:25:11;21.60;99.90
26479;DHT22;14163;-26.142;27.992;2023-12-29T06:27:40;21.70;99.90
26479;DHT22;14163;-26.142;27.992;2023-12-29T06:30:10;21.50;99.90
26479;DHT22;14163;-26.142;27.992;2023-12-29T06:32:41;21.60;99.90
26479;DHT22;14163;-26.142;27.992;2023-12-29T06:35:10;21.70;99.90
26479;DHT22;14163;-26.142;27.992;2023-12-29T06:37:39;21.80;99.90
26479;DHT22;14163;-26.142;27.992;2023-12-29T06:40:09;21.90;99.90
26479;DHT22;14163;-26.142;27.992;2023-12-29T06:42:38;22.00;99.90
26479;DHT22;14163;-26.142;27.992;2023-12-29T06:45:08;21.90;99.90
26479;DHT22;14163;-26.142;27.992;2023-12-29T06:47:37;21.60;99.90
26479;DHT22;14163;-26.142;27.992;2023-12-29T06:50:09;21.60;99.90
26479;DHT22;14163;-26.142;27.992;2023-12-29T06:52:40;21.80;99.90
26479;DHT22;14163;-26.142;27.992;2023-12-29T06:55:09;22.00;99.90
26479;DHT22;14163;-26.142;27.992;2023-12-29T06:57:38;22.20;99.90
26479;DHT22;14163;-26.142;27.992;2023-12-29T07:00:08;22.20;99.90
26479;DHT22;14163;-26.142;27.992;2023-12-29T07:02:38;22.30;99.90
26479;DHT22;14163;-26.142;27.992;2023-12-29T07:05:11;22.40;99.90
26479;DHT22;14163;-26.142;27.992;2023-12-29T07:07:40;22.50;99.90
26479;DHT22;14163;-26.142;27.992;2023-12-29T07:10:12;22.70;99.90
26479;DHT22;14163;-26.142;27.992;2023-12-29T07:12:42;22.80;99.90
26479;DHT22;14163;-26.142;27.992;2023-12-29T07:15:11;22.80;99.90
26479;DHT22;14163;-26.142;27.992;2023-12-29T07:17:41;22.70;99.90
26479;DHT22;14163;-26.142;27.992;2023-12-29T07:20:12;22.70;99.90
26479;DHT22;14163;-26.142;27.992;2023-12-29T07:22:42;22.70;99.90
26479;DHT22;14163;-26.142;27.992;2023-12-29T07:25:11;22.70;99.90
26479;DHT22;14163;-26.142;27.992;2023-12-29T07:27:40;22.70;99.90
26479;DHT22;14163;-26.142;27.992;2023-12-29T07:30:10;22.80;99.90
26479;DHT22;14163;-26.142;27.992;2023-12-29T07:32:39;23.10;99.90
26479;DHT22;14163;-26.142;27.992;2023-12-29T07:35:09;23.20;99.90
26479;DHT22;14163;-26.142;27.992;2023-12-29T07:37:40;23.30;99.90
26479;DHT22;14163;-26.142;27.992;2023-12-29T07:40:11;23.50;99.90
26479;DHT22;14163;-26.142;27.992;2023-12-29T07:42:40;23.50;99.90
26479;DHT22;14163;-26.142;27.992;2023-12-29T07:45:11;23.40;99.90
26479;DHT22;14163;-26.142;27.992;2023-12-29T07:47:40;23.30;99.90
26479;DHT22;14163;-26.142;27.992;2023-12-29T07:50:10;23.30;99.90
26479;DHT22;14163;-26.142;27.992;2023-12-29T07:52:43;23.10;99.90
26479;DHT22;14163;-26.142;27.992;2023-12-29T07:55:12;23.20;99.90
26479;DHT22;14163;-26.142;27.992;2023-12-29T07:57:43;23.40;99.90
26479;DHT22;14163;-26.142;27.992;2023-12-29T08:00:14;23.40;99.90
26479;DHT22;14163;-26.142;27.992;2023-12-29T08:02:44;23.60;99.90
26479;DHT22;14163;-26.142;27.992;2023-12-29T08:05:13;23.30;99.90
26479;DHT22;14163;-26.142;27.992;2023-12-29T08:07:46;23.40;99.90
26479;DHT22;14163;-26.142;27.992;2023-12-29T08:10:15;23.40;99.90
26479;DHT22;14163;-26.142;27.992;2023-12-29T08:12:44;23.30;99.90
26479;DHT22;14163;-26.142;27.992;2023-12-29T08:15:13;23.40;99.90
26479;DHT22;14163;-26.142;27.992;2023-12-29T08:17:44;23.50;99.90
26479;DHT22;14163;-26.142;27.992;2023-12-29T08:20:13;23.70;99.90
26479;DHT22;14163;-26.142;27.992;2023-12-29T08:22:44;23.70;99.90
26479;DHT22;14163;-26.142;27.992;2023-12-29T08:25:13;23.90;99.90
26479;DHT22;14163;-26.142;27.992;2023-12-29T08:27:42;24.10;99.90
26479;DHT22;14163;-26.142;27.992;2023-12-29T08:30:12;24.10;99.90
26479;DHT22;14163;-26.142;27.992;2023-12-29T08:32:41;24.10;99.90
26479;DHT22;14163;-26.142;27.992;2023-12-29T08:35:10;23.90;99.90
26479;DHT22;14163;-26.142;27.992;2023-12-29T08:37:39;23.90;99.90
26479;DHT22;14163;-26.142;27.992;2023-12-29T08:40:11;23.40;99.90
26479;DHT22;14163;-26.142;27.992;2023-12-29T08:42:40;23.50;99.90
26479;DHT22;14163;-26.142;27.992;2023-12-29T08:45:09;23.60;99.90
26479;DHT22;14163;-26.142;27.992;2023-12-29T08:47:38;23.30;99.90
26479;DHT22;14163;-26.142;27.992;2023-12-29T08:50:08;23.20;99.90
26479;DHT22;14163;-26.142;27.992;2023-12-29T08:52:37;23.30;99.90
26479;DHT22;14163;-26.142;27.992;2023-12-29T08:55:07;23.40;99.90
26479;DHT22;14163;-26.142;27.992;2023-12-29T08:57:38;23.00;99.90
26479;DHT22;14163;-26.142;27.992;2023-12-29T09:00:08;23.10;99.90
26479;DHT22;14163;-26.142;27.992;2023-12-29T09:02:38;23.40;99.90
26479;DHT22;14163;-26.142;27.992;2023-12-29T09:05:08;23.60;99.90
26479;DHT22;14163;-26.142;27.992;2023-12-29T09:07:37;24.00;99.90
26479;DHT22;14163;-26.142;27.992;2023-12-29T09:10:07;23.90;99.90
26479;DHT22;14163;-26.142;27.992;2023-12-29T09:12:39;24.00;99.90
26479;DHT22;14163;-26.142;27.992;2023-12-29T09:15:09;24.20;99.90
26479;DHT22;14163;-26.142;27.992;2023-12-29T09:17:38;24.30;99.90
26479;DHT22;14163;-26.142;27.992;2023-12-29T09:20:08;24.60;99.90
26479;DHT22;14163;-26.142;27.992;2023-12-29T09:22:37;24.60;99.90
26479;DHT22;14163;-26.142;27.992;2023-12-29T09:25:07;24.40;99.90
26479;DHT22;14163;-26.142;27.992;2023-12-29T09:27:38;24.50;99.90
26479;DHT22;14163;-26.142;27.992;2023-12-29T09:30:08;24.60;99.90
26479;DHT22;14163;-26.142;27.992;2023-12-29T09:32:37;24.60;99.90
26479;DHT22;14163;-26.142;27.992;2023-12-29T09:35:07;24.50;99.90
26479;DHT22;14163;-26.142;27.992;2023-12-29T09:37:36;24.30;99.90
26479;DHT22;14163;-26.142;27.992;2023-12-29T09:40:06;24.10;99.90
26479;DHT22;14163;-26.142;27.992;2023-12-29T09:42:36;23.90;99.90
26479;DHT22;14163;-26.142;27.992;2023-12-29T09:45:11;23.70;99.90
26479;DHT22;14163;-26.142;27.992;2023-12-29T09:47:42;23.60;99.90
26479;DHT22;14163;-26.142;27.992;2023-12-29T09:50:12;23.80;99.90
26479;DHT22;14163;-26.142;27.992;2023-12-29T09:52:42;23.80;99.90
26479;DHT22;14163;-26.142;27.992;2023-12-29T09:55:12;23.60;99.90
26479;DHT22;14163;-26.142;27.992;2023-12-29T09:57:41;23.60;99.90
26479;DHT22;14163;-26.142;27.992;2023-12-29T10:00:16;23.80;99.90
26479;DHT22;14163;-26.142;27.992;2023-12-29T10:02:45;24.00;99.90
26479;DHT22;14163;-26.142;27.992;2023-12-29T10:05:16;24.30;99.90
26479;DHT22;14163;-26.142;27.992;2023-12-29T10:07:46;24.40;99.90
26479;DHT22;14163;-26.142;27.992;2023-12-29T10:10:16;24.50;99.90
26479;DHT22;14163;-26.142;27.992;2023-12-29T10:12:48;24.50;99.90
26479;DHT22;14163;-26.142;27.992;2023-12-29T10:15:22;24.50;99.90
26479;DHT22;14163;-26.142;27.992;2023-12-29T10:17:58;24.20;99.90
26479;DHT22;14163;-26.142;27.992;2023-12-29T10:20:38;24.20;99.90
26479;DHT22;14163;-26.142;27.992;2023-12-29T10:23:11;24.00;99.90
26479;DHT22;14163;-26.142;27.992;2023-12-29T10:25:41;24.10;99.90
26479;DHT22;14163;-26.142;27.992;2023-12-29T10:28:10;24.10;99.90
26479;DHT22;14163;-26.142;27.992;2023-12-29T10:30:42;24.10;99.90
26479;DHT22;14163;-26.142;27.992;2023-12-29T10:33:11;24.10;99.90
26479;DHT22;14163;-26.142;27.992;2023-12-29T10:35:57;24.00;99.90
26479;DHT22;14163;-26.142;27.992;2023-12-29T10:38:29;23.90;99.90
26479;DHT22;14163;-26.142;27.992;2023-12-29T10:41:11;24.10;99.90
26479;DHT22;14163;-26.142;27.992;2023-12-29T10:43:42;24.20;99.90
26479;DHT22;14163;-26.142;27.992;2023-12-29T10:46:13;24.20;99.90
26479;DHT22;14163;-26.142;27.992;2023-12-29T10:48:42;24.30;99.90
26479;DHT22;14163;-26.142;27.992;2023-12-29T10:51:11;24.30;99.90
26479;DHT22;14163;-26.142;27.992;2023-12-29T10:53:40;24.40;99.90
26479;DHT22;14163;-26.142;27.992;2023-12-29T10:56:18;24.40;99.90
26479;DHT22;14163;-26.142;27.992;2023-12-29T10:58:58;24.50;99.90
26479;DHT22;14163;-26.142;27.992;2023-12-29T11:01:33;24.60;99.90
26479;DHT22;14163;-26.142;27.992;2023-12-29T11:04:03;24.60;99.90
26479;DHT22;14163;-26.142;27.992;2023-12-29T11:06:40;24.50;99.90
26479;DHT22;14163;-26.142;27.992;2023-12-29T11:09:11;24.60;99.90
26479;DHT22;14163;-26.142;27.992;2023-12-29T11:11:42;24.80;99.90
26479;DHT22;14163;-26.142;27.992;2023-12-29T11:14:12;24.60;99.90
26479;DHT22;14163;-26.142;27.992;2023-12-29T11:16:43;24.80;99.90
26479;DHT22;14163;-26.142;27.992;2023-12-29T11:19:13;25.00;99.90
26479;DHT22;14163;-26.142;27.992;2023-12-29T11:21:44;25.10;99.90
26479;DHT22;14163;-26.142;27.992;2023-12-29T11:24:14;25.30;99.90
26479;DHT22;14163;-26.142;27.992;2023-12-29T11:26:44;25.30;99.90
26479;DHT22;14163;-26.142;27.992;2023-12-29T11:29:14;25.00;99.90
26479;DHT22;14163;-26.142;27.992;2023-12-29T11:31:46;25.20;99.90
26479;DHT22;14163;-26.142;27.992;2023-12-29T11:34:20;25.50;99.90
26479;DHT22;14163;-26.142;27.992;2023-12-29T11:36:56;25.90;99.90
26479;DHT22;14163;-26.142;27.992;2023-12-29T11:39:34;26.20;99.90
26479;DHT22;14163;-26.142;27.992;2023-12-29T11:42:21;26.30;99.90
26479;DHT22;14163;-26.142;27.992;2023-12-29T11:44:52;26.10;99.90
26479;DHT22;14163;-26.142;27.992;2023-12-29T11:47:47;25.90;99.90
26479;DHT22;14163;-26.142;27.992;2023-12-29T11:50:29;25.80;99.90
26479;DHT22;14163;-26.142;27.992;2023-12-29T11:52:59;25.80;99.90
26479;DHT22;14163;-26.142;27.992;2023-12-29T11:55:33;25.90;99.90
26479;DHT22;14163;-26.142;27.992;2023-12-29T11:58:03;25.70;99.90
26479;DHT22;14163;-26.142;27.992;2023-12-29T12:00:46;25.60;99.90
26479;DHT22;14163;-26.142;27.992;2023-12-29T12:10:33;25.20;99.90
26479;DHT22;14163;-26.142;27.992;2023-12-29T12:13:06;24.80;99.90
26479;DHT22;14163;-26.142;27.992;2023-12-29T12:15:39;25.10;99.90
26479;DHT22;14163;-26.142;27.992;2023-12-29T12:18:11;25.40;99.90
26479;DHT22;14163;-26.142;27.992;2023-12-29T12:20:41;25.80;99.90
26479;DHT22;14163;-26.142;27.992;2023-12-29T12:23:16;26.10;99.90
26479;DHT22;14163;-26.142;27.992;2023-12-29T12:25:50;26.30;99.90
26479;DHT22;14163;-26.142;27.992;2023-12-29T12:28:26;26.10;99.90
26479;DHT22;14163;-26.142;27.992;2023-12-29T12:31:05;26.10;99.90
26479;DHT22;14163;-26.142;27.992;2023-12-29T12:33:36;26.00;99.90
26479;DHT22;14163;-26.142;27.992;2023-12-29T12:36:05;26.10;99.90
26479;DHT22;14163;-26.142;27.992;2023-12-29T12:38:36;26.30;99.90
26479;DHT22;14163;-26.142;27.992;2023-12-29T12:41:23;26.50;99.90
26479;DHT22;14163;-26.142;27.992;2023-12-29T12:43:59;26.40;99.90
26479;DHT22;14163;-26.142;27.992;2023-12-29T12:46:34;26.20;99.90
26479;DHT22;14163;-26.142;27.992;2023-12-29T13:09:15;23.80;99.90
26479;DHT22;14163;-26.142;27.992;2023-12-29T13:11:46;23.90;99.90
26479;DHT22;14163;-26.142;27.992;2023-12-29T13:14:22;24.30;99.90
26479;DHT22;14163;-26.142;27.992;2023-12-29T13:16:52;24.80;99.90
26479;DHT22;14163;-26.142;27.992;2023-12-29T13:19:23;25.10;99.90
26479;DHT22;14163;-26.142;27.992;2023-12-29T13:21:54;25.40;99.90
26479;DHT22;14163;-26.142;27.992;2023-12-29T13:24:26;25.60;99.90
26479;DHT22;14163;-26.142;27.992;2023-12-29T13:27:01;25.70;99.90
26479;DHT22;14163;-26.142;27.992;2023-12-29T13:29:31;25.80;99.90
26479;DHT22;14163;-26.142;27.992;2023-12-29T13:32:05;26.10;99.90
26479;DHT22;14163;-26.142;27.992;2023-12-29T13:34:41;26.20;99.90
26479;DHT22;14163;-26.142;27.992;2023-12-29T13:37:20;26.20;99.90
26479;DHT22;14163;-26.142;27.992;2023-12-29T13:40:00;26.20;99.90
26479;DHT22;14163;-26.142;27.992;2023-12-29T13:42:33;26.20;99.90
26479;DHT22;14163;-26.142;27.992;2023-12-29T13:45:05;25.90;99.90
26479;DHT22;14163;-26.142;27.992;2023-12-29T13:47:37;25.80;99.90
26479;DHT22;14163;-26.142;27.992;2023-12-29T13:50:09;25.70;99.90
26479;DHT22;14163;-26.142;27.992;2023-12-29T13:52:42;25.80;99.90
26479;DHT22;14163;-26.142;27.992;2023-12-29T13:55:21;25.50;99.90
26479;DHT22;14163;-26.142;27.992;2023-12-29T13:57:52;25.40;99.90
26479;DHT22;14163;-26.142;27.992;2023-12-29T14:00:22;25.40;99.90
26479;DHT22;14163;-26.142;27.992;2023-12-29T14:03:01;25.60;99.90
26479;DHT22;14163;-26.142;27.992;2023-12-29T14:05:35;25.80;99.90
26479;DHT22;14163;-26.142;27.992;2023-12-29T14:08:10;25.60;99.90
26479;DHT22;14163;-26.142;27.992;2023-12-29T14:10:48;25.40;99.90
26479;DHT22;14163;-26.142;27.992;2023-12-29T14:13:18;25.30;99.90
26479;DHT22;14163;-26.142;27.992;2023-12-29T14:15:47;25.10;99.90
26479;DHT22;14163;-26.142;27.992;2023-12-29T14:18:33;25.30;99.90
26479;DHT22;14163;-26.142;27.992;2023-12-29T14:21:21;25.30;99.90
26479;DHT22;14163;-26.142;27.992;2023-12-29T14:24:08;25.20;99.90
26479;DHT22;14163;-26.142;27.992;2023-12-29T14:29:00;25.50;99.90
26479;DHT22;14163;-26.142;27.992;2023-12-29T14:31:33;25.60;99.90
26479;DHT22;14163;-26.142;27.992;2023-12-29T14:34:03;25.50;99.90
26479;DHT22;14163;-26.142;27.992;2023-12-29T14:36:33;25.50;99.90
26479;DHT22;14163;-26.142;27.992;2023-12-29T14:39:03;25.30;99.90
26479;DHT22;14163;-26.142;27.992;2023-12-29T14:41:33;25.30;99.90
26479;DHT22;14163;-26.142;27.992;2023-12-29T14:44:04;25.30;99.90
26479;DHT22;14163;-26.142;27.992;2023-12-29T14:46:35;25.40;99.90
26479;DHT22;14163;-26.142;27.992;2023-12-29T14:49:05;25.30;99.90
26479;DHT22;14163;-26.142;27.992;2023-12-29T14:51:34;25.30;99.90
26479;DHT22;14163;-26.142;27.992;2023-12-29T14:54:04;25.30;99.90
26479;DHT22;14163;-26.142;27.992;2023-12-29T14:56:33;25.20;99.90
26479;DHT22;14163;-26.142;27.992;2023-12-29T14:59:08;25.30;99.90
26479;DHT22;14163;-26.142;27.992;2023-12-29T15:01:38;25.20;99.90
26479;DHT22;14163;-26.142;27.992;2023-12-29T15:04:13;25.30;99.90
26479;DHT22;14163;-26.142;27.992;2023-12-29T15:06:45;25.10;99.90
26479;DHT22;14163;-26.142;27.992;2023-12-29T15:09:14;25.00;99.90
26479;DHT22;14163;-26.142;27.992;2023-12-29T15:11:44;25.10;99.90
26479;DHT22;14163;-26.142;27.992;2023-12-29T15:14:15;25.00;99.90
26479;DHT22;14163;-26.142;27.992;2023-12-29T15:16:45;24.80;99.90
26479;DHT22;14163;-26.142;27.992;2023-12-29T15:19:15;25.00;99.90
26479;DHT22;14163;-26.142;27.992;2023-12-29T15:21:44;24.70;99.90
26479;DHT22;14163;-26.142;27.992;2023-12-29T15:24:13;24.60;99.90
26479;DHT22;14163;-26.142;27.992;2023-12-29T15:26:43;24.60;99.90
26479;DHT22;14163;-26.142;27.992;2023-12-29T15:29:12;24.70;99.90
26479;DHT22;14163;-26.142;27.992;2023-12-29T15:31:45;25.00;99.90
26479;DHT22;14163;-26.142;27.992;2023-12-29T15:34:14;25.10;99.90
26479;DHT22;14163;-26.142;27.992;2023-12-29T15:36:43;25.20;99.90
26479;DHT22;14163;-26.142;27.992;2023-12-29T15:39:12;25.10;99.90
26479;DHT22;14163;-26.142;27.992;2023-12-29T15:41:42;25.10;99.90
26479;DHT22;14163;-26.142;27.992;2023-12-29T15:44:12;24.80;99.90
26479;DHT22;14163;-26.142;27.992;2023-12-29T15:46:43;24.90;99.90
26479;DHT22;14163;-26.142;27.992;2023-12-29T15:49:14;24.80;99.90
26479;DHT22;14163;-26.142;27.992;2023-12-29T15:51:44;24.60;99.90
26479;DHT22;14163;-26.142;27.992;2023-12-29T15:54:13;24.70;99.90